Mali Ston, Croatia
Current Conditions -  °F | °C
As of 7:00 PM on Saturday 22 Nov 2014 (Local Time) from LDDU Reporting Station
Clear Clear  
Wind Chill: 48°   Ceiling: Unl
Heat Index: 48°   Visibility: 6mi
Dew Point: 41°   Wind: 3mph
Humidity: 76%   Direction: 70°ENE
Pressure: 30.24"   Gusts: NA
Location:  42.84°N, 17.69°E
Report Text: LDDU 221700Z 07003KT 040V120 CAVOK 09/05 Q1024 BECMG 02015KT
Loading
Personal Weather Stations






























Interactive Weather Map New forecast layout! Learn more

10-Day Weather Forecast

Advertisements
Track Severe Weather on mobile